Time;durP1;ratioP1;P1;durP2;ratioP2;P2;SDS_P1;SDS_P2;PMS_P1;PMS_P2;Temp;Humidity;BMP_temperature;BMP_pressure;BME280_temperature;BME280_humidity;BME280_pressure;Samples;Min_cycle;Max_cycle;Signal;HPM_P1;HPM_P2
2022/08/25 00:00:10;;;;;;;7.32;5.80;;;;;;;22.24;71.85;101591.22;5001761;28;20030;-74
2022/08/25 00:02:36;;;;;;;7.20;5.45;;;;;;;22.35;71.48;101583.84;4996704;28;20508;-74
2022/08/25 00:05:03;;;;;;;6.20;5.60;;;;;;;22.35;70.84;101583.84;4991208;28;20029;-75
2022/08/25 00:07:28;;;;;;;7.00;6.05;;;;;;;22.26;71.14;101581.31;5004308;28;20026;-75
2022/08/25 00:09:54;;;;;;;8.55;6.25;;;;;;;22.36;70.61;101577.56;4998436;28;20180;-75
2022/08/25 00:12:20;;;;;;;8.75;6.38;;;;;;;22.29;70.83;101584.59;5009509;28;20029;-75
2022/08/25 00:14:45;;;;;;;7.25;6.55;;;;;;;22.21;71.07;101573.13;4998403;28;20040;-75
2022/08/25 00:17:10;;;;;;;8.65;6.50;;;;;;;22.15;71.22;101579.13;5009265;28;20030;-75
2022/08/25 00:19:37;;;;;;;8.05;6.40;;;;;;;22.12;71.00;101579.50;5008175;28;20502;-75
2022/08/25 00:22:03;;;;;;;7.85;5.97;;;;;;;22.18;70.91;101586.69;4985169;28;20561;-74
2022/08/25 00:24:29;;;;;;;7.68;6.43;;;;;;;22.10;71.24;101576.22;5008529;28;20026;-74
2022/08/25 00:26:57;;;;;;;9.48;6.50;;;;;;;22.12;71.36;101578.66;5008166;28;20470;-75
2022/08/25 00:29:24;;;;;;;7.20;6.25;;;;;;;22.14;71.21;101582.78;5007045;28;20477;-75
2022/08/25 00:31:51;;;;;;;9.25;6.68;;;;;;;22.07;71.15;101587.09;4996108;28;20025;-74
2022/08/25 00:34:21;;;;;;;9.13;6.85;;;;;;;22.04;71.76;101582.19;4998333;28;20022;-75
2022/08/25 00:36:50;;;;;;;8.52;6.53;;;;;;;22.05;71.16;101591.75;5005337;28;20037;-75
2022/08/25 00:39:16;;;;;;;8.27;6.60;;;;;;;22.06;70.69;101584.66;5003441;28;20030;-75
2022/08/25 00:41:42;;;;;;;7.32;6.43;;;;;;;21.98;70.72;101573.19;5001649;28;20124;-75
2022/08/25 00:44:11;;;;;;;7.63;6.80;;;;;;;22.01;70.24;101579.91;4991027;28;20109;-75
2022/08/25 00:46:41;;;;;;;;;;;;;;;22.26;69.31;101581.31;5008304;28;20025;-75
2022/08/25 00:49:16;;;;;;;7.57;6.40;;;;;;;22.03;69.98;101577.94;5007961;28;20007;-75
2022/08/25 00:51:50;;;;;;;9.98;7.10;;;;;;;22.01;70.48;101586.00;5008735;28;20056;-75
2022/08/25 00:54:23;;;;;;;9.10;6.63;;;;;;;21.97;69.84;101576.00;5008177;28;20108;-75
2022/08/25 00:56:50;;;;;;;9.73;7.28;;;;;;;21.92;70.01;101581.00;5007776;28;20025;-74
2022/08/25 00:59:18;;;;;;;10.33;7.33;;;;;;;21.88;70.38;101582.38;5007805;28;20045;-75
2022/08/25 01:01:44;;;;;;;8.75;7.32;;;;;;;21.91;69.68;101582.84;4989683;28;20033;-75
2022/08/25 01:04:09;;;;;;;11.32;7.15;;;;;;;21.88;69.92;101582.38;4991086;28;20034;-75
2022/08/25 01:06:38;;;;;;;8.95;7.07;;;;;;;21.68;71.17;101587.38;5007155;28;20030;-75
2022/08/25 01:09:06;;;;;;;8.68;7.18;;;;;;;21.61;70.89;101571.41;5006621;28;20072;-75
2022/08/25 01:11:33;;;;;;;9.32;7.38;;;;;;;21.79;70.43;101583.44;5000221;28;20038;-75
2022/08/25 01:14:02;;;;;;;9.68;7.78;;;;;;;21.73;70.07;101575.25;4999788;28;20041;-74
2022/08/25 01:16:28;;;;;;;10.20;7.93;;;;;;;21.62;70.59;101573.06;4997325;28;20025;-74
2022/08/25 01:18:56;;;;;;;9.02;7.40;;;;;;;21.60;70.99;101572.41;4990493;28;20033;-75
2022/08/25 01:21:25;;;;;;;11.27;7.70;;;;;;;21.50;71.11;101574.47;4989960;28;20366;-74
2022/08/25 01:23:51;;;;;;;10.85;8.05;;;;;;;21.48;71.07;101576.47;4990912;28;20113;-74
2022/08/25 01:26:21;;;;;;;9.43;7.57;;;;;;;21.54;71.30;101581.03;4988762;28;20490;-74
2022/08/25 01:31:34;;;;;;;10.05;8.20;;;;;;;21.55;70.79;101579.22;4989329;28;20053;-75
2022/08/25 01:33:59;;;;;;;9.07;8.13;;;;;;;21.49;71.27;101583.38;4988260;28;20110;-75
2022/08/25 01:36:28;;;;;;;10.38;7.93;;;;;;;21.46;70.92;101584.59;4986800;28;20021;-75
2022/08/25 01:38:53;;;;;;;9.23;8.32;;;;;;;21.42;70.76;101582.47;4989344;28;20033;-75
2022/08/25 01:41:28;;;;;;;10.68;8.88;;;;;;;21.47;71.14;101580.13;5006799;28;20095;-75
2022/08/25 01:43:53;;;;;;;9.65;8.63;;;;;;;21.32;71.18;101581.88;5007065;28;20030;-75
2022/08/25 01:46:20;;;;;;;10.90;8.95;;;;;;;21.35;70.80;101576.28;5002163;28;20766;-74
2022/08/25 01:48:46;;;;;;;9.70;8.60;;;;;;;21.34;71.17;101579.91;5001993;28;20030;-75
2022/08/25 01:51:14;;;;;;;10.10;9.10;;;;;;;21.32;71.57;101579.25;5004811;28;20034;-74
2022/08/25 01:53:40;;;;;;;11.27;8.93;;;;;;;21.38;71.04;101576.72;5002856;28;20032;-74
2022/08/25 01:56:15;;;;;;;9.65;8.52;;;;;;;21.34;71.20;101577.28;4996610;28;20026;-74
2022/08/25 01:58:45;;;;;;;10.52;8.57;;;;;;;21.23;71.30;101578.47;5005391;28;20119;-74
2022/08/25 02:01:17;;;;;;;10.00;9.07;;;;;;;21.23;70.99;101575.84;5003360;28;20026;-74
2022/08/25 02:03:46;;;;;;;10.98;9.05;;;;;;;21.14;71.14;101569.78;5000015;28;20045;-74
2022/08/25 02:06:13;;;;;;;11.43;9.52;;;;;;;21.15;70.77;101576.69;5006732;28;20108;-74
2022/08/25 02:08:39;;;;;;;9.82;8.82;;;;;;;21.14;70.90;101582.97;4989046;28;20472;-75
2022/08/25 02:11:04;;;;;;;9.95;8.90;;;;;;;21.03;71.13;101580.75;5006461;28;20053;-75
2022/08/25 02:13:30;;;;;;;9.85;8.88;;;;;;;21.17;70.58;101580.00;5006373;28;20040;-74
2022/08/25 02:15:58;;;;;;;10.23;9.05;;;;;;;21.14;70.02;101580.34;5007202;28;20017;-74
2022/08/25 02:18:23;;;;;;;9.90;8.88;;;;;;;21.10;70.22;101576.41;5007147;28;20036;-74
2022/08/25 02:20:49;;;;;;;10.98;8.73;;;;;;;21.04;70.17;101582.38;4988306;28;20054;-74
2022/08/25 02:23:15;;;;;;;9.23;8.25;;;;;;;20.94;69.71;101579.19;5001410;28;20379;-74
2022/08/25 02:25:43;;;;;;;10.05;8.20;;;;;;;20.96;69.73;101577.19;4987485;28;20470;-75
2022/08/25 02:28:08;;;;;;;10.18;8.35;;;;;;;21.01;68.86;101572.19;4996762;28;20025;-75
2022/08/25 02:30:36;;;;;;;9.23;8.10;;;;;;;20.97;68.84;101578.81;4999395;28;20034;-74
2022/08/25 02:33:01;;;;;;;8.88;7.97;;;;;;;20.87;68.95;101567.66;5002909;28;20516;-74
2022/08/25 02:35:27;;;;;;;9.07;7.97;;;;;;;20.99;68.32;101566.28;5007020;28;20029;-74
2022/08/25 02:37:52;;;;;;;11.32;7.40;;;;;;;20.89;67.43;101565.69;5003835;28;20061;-75
2022/08/25 02:40:20;;;;;;;8.57;7.65;;;;;;;20.97;67.29;101562.16;4999706;28;20034;-75
2022/08/25 02:42:46;;;;;;;12.93;7.47;;;;;;;20.83;66.85;101561.13;4999908;28;20033;-74
2022/08/25 02:45:11;;;;;;;8.82;6.70;;;;;;;20.83;66.89;101555.84;5001943;28;20377;-74
2022/08/25 02:47:37;;;;;;;9.55;6.55;;;;;;;20.87;65.79;101567.66;5001233;28;20026;-74
2022/08/25 02:50:06;;;;;;;8.50;6.40;;;;;;;20.82;65.89;101567.41;4998443;28;20041;-75
2022/08/25 02:52:31;;;;;;;7.65;6.10;;;;;;;20.77;64.57;101548.63;5001545;28;20026;-74
2022/08/25 02:54:56;;;;;;;10.32;6.47;;;;;;;20.87;64.85;101563.25;4993680;28;20033;-75
2022/08/25 02:57:22;;;;;;;7.85;5.85;;;;;;;20.75;64.53;101554.06;4976154;28;20053;-74
2022/08/25 02:59:47;;;;;;;7.97;5.68;;;;;;;20.74;64.33;101557.69;4987995;28;20034;-75
2022/08/25 03:02:15;;;;;;;7.50;5.80;;;;;;;20.79;63.15;101559.81;5001746;28;20490;-75
2022/08/25 03:04:41;;;;;;;7.55;5.80;;;;;;;20.74;63.38;101556.88;5002095;28;20030;-74
2022/08/25 03:07:06;;;;;;;8.52;5.80;;;;;;;20.70;63.59;101545.84;5005874;28;20032;-74
2022/08/25 03:09:32;;;;;;;9.10;5.80;;;;;;;20.79;62.66;101549.28;4988624;28;20026;-75
2022/08/25 03:11:57;;;;;;;8.32;5.57;;;;;;;20.72;62.84;101538.59;5001224;28;20026;-74
2022/08/25 03:14:23;;;;;;;18.27;5.90;;;;;;;20.69;62.39;101539.75;5005163;28;20100;-74
2022/08/25 03:16:48;;;;;;;8.57;5.53;;;;;;;20.73;62.52;101536.78;4989075;28;20029;-75
2022/08/25 03:19:13;;;;;;;8.93;5.60;;;;;;;20.74;62.51;101541.06;5004970;28;20049;-74
2022/08/25 03:21:39;;;;;;;9.48;5.40;;;;;;;20.74;62.23;101535.78;5006350;28;20129;-75
2022/08/25 03:24:05;;;;;;;7.82;5.32;;;;;;;20.72;62.21;101537.78;5005422;28;20030;-75
2022/08/25 03:29:16;;;;;;;8.63;5.07;;;;;;;20.65;62.44;101522.66;5000419;28;20033;-75
2022/08/25 03:31:43;;;;;;;9.90;5.60;;;;;;;20.60;61.89;101524.19;4999760;28;20022;-75
2022/08/25 03:34:09;;;;;;;7.32;5.05;;;;;;;20.58;61.85;101521.69;4986258;28;20030;-75
2022/08/25 03:36:35;;;;;;;7.40;5.20;;;;;;;20.53;61.90;101518.78;4993800;28;20030;-75
2022/08/25 03:39:01;;;;;;;9.07;5.20;;;;;;;20.57;62.12;101520.06;4992523;28;20030;-75
2022/08/25 03:41:29;;;;;;;8.88;4.97;;;;;;;20.49;62.57;101517.50;4992394;28;20022;-75
2022/08/25 03:43:55;;;;;;;8.57;5.53;;;;;;;20.43;62.20;101524.25;5001783;28;20030;-75
2022/08/25 03:46:26;;;;;;;8.50;5.20;;;;;;;20.47;62.59;101513.38;5005001;28;20453;-75
2022/08/25 03:48:52;;;;;;;8.80;5.20;;;;;;;20.38;62.44;101520.47;4992787;28;20470;-75
2022/08/25 03:51:33;;;;;;;7.93;5.22;;;;;;;20.36;62.38;101519.84;4986665;28;20038;-75
2022/08/25 03:54:00;;;;;;;7.80;5.07;;;;;;;20.35;60.95;101520.81;5001759;28;20034;-75
2022/08/25 03:56:26;;;;;;;6.80;5.10;;;;;;;20.35;61.58;101507.63;4995281;28;20640;-75
2022/08/25 03:58:52;;;;;;;7.57;5.13;;;;;;;20.32;61.81;101505.38;4987290;28;20394;-75
2022/08/25 04:01:18;;;;;;;8.05;4.90;;;;;;;20.31;61.87;101501.09;5001276;28;20040;-75
2022/08/25 04:03:43;;;;;;;6.93;4.65;;;;;;;20.24;61.89;101502.75;5001090;28;20356;-76
2022/08/25 04:06:09;;;;;;;8.50;5.15;;;;;;;20.19;62.07;101510.38;4996414;28;20036;-75
2022/08/25 04:08:35;;;;;;;9.25;5.10;;;;;;;20.07;62.74;101513.38;4975712;28;20038;-74
2022/08/25 04:11:27;;;;;;;9.05;5.10;;;;;;;20.25;62.63;101512.31;4991753;28;20410;-74
2022/08/25 04:13:56;;;;;;;10.13;4.70;;;;;;;20.04;62.86;101502.34;4987507;28;20045;-74
2022/08/25 04:16:29;;;;;;;10.15;5.20;;;;;;;19.99;63.05;101500.22;5006423;28;20053;-75
2022/08/25 04:18:55;;;;;;;6.93;4.72;;;;;;;19.88;62.72;101497.97;5008193;28;20057;-74
2022/08/25 04:21:22;;;;;;;8.68;5.07;;;;;;;19.81;62.62;101492.56;4991587;28;20048;-75
2022/08/25 04:23:48;;;;;;;7.63;4.97;;;;;;;19.78;62.54;101481.53;5008507;28;20037;-75
2022/08/25 04:26:18;;;;;;;8.05;5.15;;;;;;;19.79;62.46;101484.03;5008433;28;20286;-75
2022/08/25 04:28:44;;;;;;;9.20;5.25;;;;;;;19.73;61.89;101478.63;5007426;28;20034;-75
2022/08/25 04:31:11;;;;;;;8.95;5.20;;;;;;;19.77;61.96;101485.97;5008971;28;20462;-75
2022/08/25 04:33:37;;;;;;;9.32;4.60;;;;;;;19.76;62.26;101488.78;5008789;28;20474;-75
2022/08/25 04:36:07;;;;;;;8.07;4.80;;;;;;;19.86;61.71;101492.88;5008434;28;20573;-74
2022/08/25 04:38:33;;;;;;;7.13;4.95;;;;;;;19.68;62.35;101491.47;4990209;28;20387;-75
2022/08/25 04:41:02;;;;;;;8.23;4.88;;;;;;;19.77;61.69;101496.50;5008475;28;20068;-75
2022/08/25 04:43:30;;;;;;;7.72;5.22;;;;;;;19.67;61.99;101490.63;5007813;28;20033;-75
2022/08/25 04:45:56;;;;;;;8.80;4.80;;;;;;;19.74;61.63;101496.03;5008842;28;20424;-74
2022/08/25 04:48:21;;;;;;;7.18;4.72;;;;;;;19.70;62.02;101494.72;5004008;28;20506;-75
2022/08/25 04:50:47;;;;;;;7.50;4.65;;;;;;;19.69;62.26;101493.91;5008913;28;20038;-75
2022/08/25 04:53:12;;;;;;;8.55;5.10;;;;;;;19.59;62.36;101494.09;5004494;28;20093;-75
2022/08/25 04:55:46;;;;;;;9.23;5.60;;;;;;;19.55;62.56;101491.91;4991175;28;20497;-74
2022/08/25 04:58:12;;;;;;;10.98;5.18;;;;;;;19.55;61.67;101492.75;5006393;28;20327;-75
2022/08/25 05:00:39;;;;;;;9.20;4.88;;;;;;;19.47;62.45;101499.84;4991151;28;20144;-75
2022/08/25 05:03:05;;;;;;;8.15;4.75;;;;;;;19.50;62.70;101489.81;4990905;28;20176;-75
2022/08/25 05:05:34;;;;;;;7.82;4.90;;;;;;;19.45;62.63;101492.13;4996538;28;20046;-75
2022/08/25 05:07:59;;;;;;;8.20;5.00;;;;;;;19.42;62.18;101491.63;5008762;28;20056;-74
2022/08/25 05:10:25;;;;;;;7.43;5.07;;;;;;;19.49;62.40;101496.03;4995063;28;20477;-75
2022/08/25 05:12:50;;;;;;;9.18;4.63;;;;;;;19.50;61.63;101495.09;5000968;28;20023;-74
2022/08/25 05:18:00;;;;;;;8.20;4.60;;;;;;;19.52;61.02;101508.88;5007826;28;20476;-75
2022/08/25 05:20:25;;;;;;;6.53;4.53;;;;;;;19.55;61.90;101508.53;5007471;28;20042;-74
2022/08/25 05:22:51;;;;;;;6.35;4.57;;;;;;;19.54;62.44;101506.06;5008548;28;20068;-74
2022/08/25 05:25:16;;;;;;;9.75;4.43;;;;;;;19.57;62.08;101506.56;5008883;28;20145;-74
2022/08/25 05:27:42;;;;;;;8.60;4.45;;;;;;;19.61;62.30;101513.19;5007934;28;20064;-75
2022/08/25 05:30:10;;;;;;;7.68;4.63;;;;;;;19.63;62.13;101513.81;4989937;28;20044;-75
2022/08/25 05:32:36;;;;;;;9.63;4.70;;;;;;;19.58;62.97;101513.50;5008202;28;20039;-74
2022/08/25 05:35:01;;;;;;;8.07;4.75;;;;;;;19.62;62.43;101520.09;5007407;28;20029;-75
2022/08/25 05:37:27;;;;;;;7.00;4.60;;;;;;;19.68;62.90;101523.03;5007652;28;20022;-75
2022/08/25 05:39:52;;;;;;;9.60;4.50;;;;;;;19.79;62.30;101512.16;4990383;28;20473;-75
2022/08/25 05:42:18;;;;;;;8.18;4.80;;;;;;;19.83;62.53;101526.59;5007540;28;20112;-74
2022/08/25 05:44:43;;;;;;;7.13;5.18;;;;;;;19.93;61.75;101519.34;4989191;28;20044;-75
2022/08/25 05:47:08;;;;;;;9.50;4.90;;;;;;;19.83;62.89;101516.06;4989479;28;20109;-75
2022/08/25 05:49:34;;;;;;;9.18;4.70;;;;;;;20.01;62.16;101519.31;5006832;28;20037;-75
2022/08/25 05:51:59;;;;;;;9.82;5.07;;;;;;;20.11;62.15;101524.38;5007193;28;20446;-74
2022/08/25 05:54:24;;;;;;;10.57;5.25;;;;;;;20.17;62.23;101523.69;5007575;28;20064;-75
2022/08/25 05:56:50;;;;;;;8.38;5.03;;;;;;;20.27;62.00;101531.41;4992061;28;20060;-75
2022/08/25 05:59:16;;;;;;;11.63;5.13;;;;;;;20.26;61.64;101522.69;4995918;28;20537;-75
2022/08/25 06:04:25;;;;;;;8.90;5.30;;;;;;;20.51;60.97;101531.31;4989702;28;20048;-75
2022/08/25 06:06:53;;;;;;;9.45;5.25;;;;;;;20.56;60.87;101528.97;4988197;28;20026;-75
2022/08/25 06:09:19;;;;;;;7.38;4.90;;;;;;;20.64;60.22;101526.31;4991321;28;20026;-75
2022/08/25 06:11:46;;;;;;;8.10;4.43;;;;;;;20.75;60.17;101521.59;4997028;28;20034;-75
2022/08/25 06:14:12;;;;;;;8.25;4.60;;;;;;;20.81;59.67;101526.19;4985971;28;20026;-75
2022/08/25 06:16:39;;;;;;;7.47;4.70;;;;;;;20.89;59.47;101534.88;4991152;28;20334;-75
2022/08/25 06:19:06;;;;;;;9.32;4.28;;;;;;;20.98;58.81;101532.97;4992109;28;20076;-75
2022/08/25 06:21:31;;;;;;;9.68;4.47;;;;;;;21.03;58.73;101533.28;4991842;28;20478;-75
2022/08/25 06:23:57;;;;;;;10.07;4.35;;;;;;;21.11;57.97;101527.94;4990736;28;20158;-75
2022/08/25 06:26:22;;;;;;;9.80;4.72;;;;;;;21.16;57.70;101524.75;4971808;28;20325;-74
2022/08/25 06:28:49;;;;;;;6.97;4.00;;;;;;;21.24;57.83;101531.81;4992069;28;20037;-75
2022/08/25 06:31:15;;;;;;;9.18;4.30;;;;;;;21.32;57.67;101534.38;4990541;28;20180;-75
2022/08/25 06:33:41;;;;;;;9.45;4.00;;;;;;;21.35;56.67;101526.13;4990363;28;20060;-76
2022/08/25 06:36:07;;;;;;;8.43;4.10;;;;;;;21.43;56.93;101531.31;4990949;28;20351;-75
2022/08/25 06:38:32;;;;;;;7.65;3.95;;;;;;;21.53;56.04;101523.97;4973224;28;20117;-75
2022/08/25 06:41:04;;;;;;;8.55;4.20;;;;;;;21.61;56.11;101529.16;4988920;28;20023;-75
2022/08/25 06:43:31;;;;;;;6.88;3.78;;;;;;;21.72;55.87;101535.81;4993771;28;20430;-75
2022/08/25 06:45:57;;;;;;;7.18;4.35;;;;;;;21.80;55.67;101533.09;4989152;28;20138;-75
2022/08/25 06:48:23;;;;;;;6.97;4.15;;;;;;;21.88;55.68;101534.84;4973159;28;20121;-75
2022/08/25 06:50:48;;;;;;;8.95;4.03;;;;;;;21.95;54.99;101522.53;4987766;28;20426;-75
2022/08/25 06:53:14;;;;;;;9.07;4.40;;;;;;;22.05;55.01;101531.00;4987540;28;20102;-75
2022/08/25 06:55:39;;;;;;;9.85;4.13;;;;;;;22.14;55.45;101526.47;5003571;28;20040;-75
2022/08/25 06:58:07;;;;;;;7.55;4.10;;;;;;;22.20;55.25;101523.91;5001142;28;20446;-76
2022/08/25 07:00:32;;;;;;;8.68;4.20;;;;;;;22.30;55.36;101528.06;4995504;28;20381;-75
2022/08/25 07:03:00;;;;;;;8.68;4.40;;;;;;;22.35;54.21;101528.34;4991484;28;20502;-75
2022/08/25 07:05:25;;;;;;;7.38;4.25;;;;;;;22.46;54.06;101527.88;4992300;28;20038;-75
2022/08/25 07:07:51;;;;;;;8.48;4.20;;;;;;;22.49;54.30;101514.28;4994042;28;20069;-76
2022/08/25 07:10:16;;;;;;;9.98;4.30;;;;;;;22.62;54.23;101527.63;4995741;28;20470;-76
2022/08/25 07:12:42;;;;;;;9.48;4.03;;;;;;;22.69;53.23;101523.22;4992984;28;20097;-76
2022/08/25 07:15:08;;;;;;;6.97;3.83;;;;;;;22.74;53.71;101520.84;4993694;28;20121;-76
2022/08/25 07:17:33;;;;;;;8.93;3.97;;;;;;;22.84;52.67;101525.03;4988474;28;20069;-75
2022/08/25 07:19:58;;;;;;;6.53;3.92;;;;;;;22.87;52.95;101529.91;4988453;28;20034;-76
2022/08/25 07:22:24;;;;;;;8.80;3.58;;;;;;;22.99;53.16;101528.44;5001282;28;20029;-75
2022/08/25 07:24:49;;;;;;;8.25;4.03;;;;;;;23.05;52.73;101522.38;4990820;28;20113;-75
2022/08/25 07:27:14;;;;;;;8.65;4.07;;;;;;;23.20;52.66;101528.41;4987351;28;20085;-76
2022/08/25 07:29:40;;;;;;;9.07;3.90;;;;;;;23.24;51.94;101532.34;5000364;28;20409;-76
2022/08/25 07:32:05;;;;;;;6.40;3.90;;;;;;;23.30;51.64;101520.97;4988162;28;20026;-75
2022/08/25 07:37:15;;;;;;;7.68;4.07;;;;;;;23.45;51.17;101518.22;4998367;28;20045;-76
2022/08/25 07:39:41;;;;;;;8.00;3.85;;;;;;;23.57;51.00;101521.19;5001472;28;20373;-76
2022/08/25 07:42:07;;;;;;;7.28;4.05;;;;;;;23.64;51.33;101527.34;4996354;28;20034;-76
2022/08/25 07:44:33;;;;;;;7.40;4.25;;;;;;;23.68;50.96;101518.00;5008920;28;20431;-75
2022/08/25 07:46:58;;;;;;;8.85;4.43;;;;;;;23.79;50.71;101530.69;5000365;28;20034;-75
2022/08/25 07:49:25;;;;;;;6.90;4.30;;;;;;;23.84;50.42;101516.88;4993469;28;20022;-76
2022/08/25 07:51:52;;;;;;;11.35;4.30;;;;;;;24.00;50.51;101515.72;4978158;28;20494;-75
2022/08/25 07:54:18;;;;;;;8.50;3.90;;;;;;;24.07;50.41;101522.69;4996179;28;20037;-75
2022/08/25 07:56:43;;;;;;;8.93;4.05;;;;;;;24.12;49.97;101519.44;5002068;28;20036;-76
2022/08/25 07:59:09;;;;;;;7.70;4.25;;;;;;;24.28;49.31;101528.91;4992523;28;20034;-76
2022/08/25 08:01:35;;;;;;;7.22;3.75;;;;;;;24.32;49.04;101536.25;4991572;28;20371;-76
2022/08/25 08:04:01;;;;;;;9.90;3.90;;;;;;;24.44;49.32;101523.28;4977585;28;20133;-76
2022/08/25 08:06:26;;;;;;;9.38;4.20;;;;;;;24.51;49.84;101528.59;4991370;28;20112;-75
2022/08/25 08:08:53;;;;;;;9.10;4.30;;;;;;;24.58;50.06;101513.50;4991006;28;20472;-75
2022/08/25 08:11:27;;;;;;;9.57;4.40;;;;;;;24.61;49.63;101519.25;4998299;28;20414;-75
2022/08/25 08:13:54;;;;;;;7.40;3.85;;;;;;;24.69;50.00;101510.25;4979351;28;20112;-76
2022/08/25 08:16:22;;;;;;;8.03;3.90;;;;;;;24.85;49.64;101515.19;4992382;28;20459;-76
2022/08/25 08:18:48;;;;;;;8.27;4.00;;;;;;;24.77;48.76;101507.41;4994598;28;20360;-77
2022/08/25 08:21:27;;;;;;;9.00;3.97;;;;;;;24.83;49.20;101506.63;4991473;28;20386;-76
2022/08/25 08:23:54;;;;;;;8.15;4.00;;;;;;;24.97;49.49;101506.63;5005688;28;20076;-76
2022/08/25 08:26:19;;;;;;;12.20;3.80;;;;;;;25.09;48.82;101500.53;4991996;28;20041;-77
2022/08/25 08:28:45;;;;;;;8.90;4.22;;;;;;;25.09;48.40;101500.53;4995977;28;20023;-79
2022/08/25 08:31:11;;;;;;;7.05;3.70;;;;;;;25.19;47.54;101507.28;5001473;28;20041;-77
2022/08/25 08:33:37;;;;;;;7.20;4.00;;;;;;;25.20;48.88;101501.75;5006192;28;20377;-77
2022/08/25 08:36:08;;;;;;;7.72;4.13;;;;;;;25.31;48.86;101503.78;4991092;28;20026;-76
2022/08/25 08:38:35;;;;;;;8.48;4.00;;;;;;;25.37;49.79;101495.00;4999642;28;20121;-75
2022/08/25 08:44:34;;;;;;;9.27;4.50;;;;;;;25.41;47.81;101488.25;5005735;28;20044;-76
2022/08/25 08:47:21;;;;;;;9.52;4.55;;;;;;;25.51;48.04;101497.63;5007803;28;20053;-76
2022/08/25 08:50:01;;;;;;;8.27;3.78;;;;;;;25.56;47.91;101495.16;4995772;28;20025;-75
2022/08/25 08:52:51;;;;;;;9.27;4.00;;;;;;;25.60;48.46;101486.56;5005833;28;20061;-76
2022/08/25 08:55:42;;;;;;;6.80;3.83;;;;;;;25.84;47.89;101493.06;4990562;28;20022;-76
2022/08/25 08:58:33;;;;;;;7.05;3.88;;;;;;;26.03;48.68;101490.53;4998815;28;20029;-78
2022/08/25 09:01:00;;;;;;;9.38;4.05;;;;;;;26.01;46.86;101487.28;4992915;28;20053;-75
2022/08/25 09:04:15;;;;;;;9.45;4.20;;;;;;;26.07;47.80;101491.75;5006071;28;20534;-75
2022/08/25 09:06:43;;;;;;;6.57;4.28;;;;;;;26.12;45.89;101495.41;4993838;28;20478;-75
2022/08/25 09:09:13;;;;;;;6.82;3.90;;;;;;;26.18;46.16;101491.09;4990301;28;20032;-76
2022/08/25 09:12:02;;;;;;;6.95;4.00;;;;;;;26.28;47.08;101493.28;4997097;28;20061;-76
2022/08/25 09:15:05;;;;;;;8.75;3.95;;;;;;;26.50;46.48;101485.84;4996347;28;20453;-75
2022/08/25 09:17:55;;;;;;;9.07;4.13;;;;;;;26.52;46.27;101489.09;4989597;28;20993;-77
2022/08/25 09:20:31;;;;;;;10.10;3.97;;;;;;;26.61;45.24;101487.78;4989907;28;20049;-75
2022/08/25 09:23:28;;;;;;;8.90;3.88;;;;;;;26.65;45.00;101489.00;4988552;28;20034;-76
2022/08/25 09:26:19;;;;;;;7.75;3.85;;;;;;;26.88;45.51;101489.22;5001858;28;20037;-75
2022/08/25 09:29:12;;;;;;;6.60;3.97;;;;;;;26.94;45.65;101495.53;5007243;28;20038;-76
2022/08/25 09:31:40;;;;;;;6.82;4.10;;;;;;;27.14;45.33;101503.41;5006687;28;20032;-76
2022/08/25 09:34:11;;;;;;;8.70;4.32;;;;;;;27.18;45.26;101505.41;5003380;28;20048;-76
2022/08/25 09:36:37;;;;;;;7.47;3.88;;;;;;;27.33;43.26;101502.38;5005874;28;20017;-79
2022/08/25 09:39:03;;;;;;;10.77;3.58;;;;;;;27.45;42.82;101489.97;5003051;28;20519;-76
2022/08/25 09:41:57;;;;;;;9.82;3.90;;;;;;;27.52;42.90;101485.38;4989053;28;20033;-77
2022/08/25 09:44:38;;;;;;;8.55;3.47;;;;;;;27.60;42.39;101475.47;4996799;28;20133;-76
2022/08/25 09:47:05;;;;;;;7.13;3.78;;;;;;;27.70;41.25;101481.94;4993728;28;20047;-76
2022/08/25 09:49:37;;;;;;;5.95;3.47;;;;;;;27.64;41.42;101481.97;4992688;28;20037;-76
2022/08/25 09:52:17;;;;;;;7.70;3.30;;;;;;;27.82;42.91;101478.53;4994996;28;20026;-77
2022/08/25 09:54:43;;;;;;;10.05;3.90;;;;;;;27.86;42.06;101469.84;4983681;28;20072;-77
2022/08/25 09:57:31;;;;;;;9.02;3.80;;;;;;;27.98;41.98;101478.72;4989718;28;20062;-76
2022/08/25 10:00:20;;;;;;;6.15;3.58;;;;;;;28.19;41.72;101474.75;4996082;28;20029;-76
2022/08/25 10:03:04;;;;;;;7.38;3.83;;;;;;;28.34;42.57;101477.06;4994350;28;20386;-76
2022/08/25 10:05:33;;;;;;;6.85;3.55;;;;;;;28.38;42.16;101462.19;4994105;28;20041;-77
2022/08/25 10:08:02;;;;;;;8.07;3.90;;;;;;;28.35;40.63;101468.00;5003451;28;20041;-76
2022/08/25 10:10:32;;;;;;;8.20;3.92;;;;;;;28.52;40.80;101463.63;4999946;28;20100;-76
2022/08/25 10:12:59;;;;;;;7.45;3.80;;;;;;;28.67;40.71;101462.38;5000605;28;20030;-76
2022/08/25 10:15:25;;;;;;;6.60;3.63;;;;;;;28.65;38.94;101451.13;4992720;28;20030;-76
2022/08/25 10:17:51;;;;;;;7.53;3.78;;;;;;;28.71;39.29;101456.34;4999229;28;20040;-76
2022/08/25 10:20:23;;;;;;;8.57;3.88;;;;;;;28.83;39.91;101448.34;4999507;28;20054;-76
2022/08/25 10:22:50;;;;;;;7.60;3.78;;;;;;;28.84;39.53;101440.09;4996985;28;20034;-75
2022/08/25 10:25:28;;;;;;;7.18;3.30;;;;;;;29.09;39.62;101447.94;4987500;28;20040;-75
2022/08/25 10:28:33;;;;;;;6.15;3.80;;;;;;;29.18;39.77;101434.22;4990516;28;20030;-76
2022/08/25 10:31:05;;;;;;;10.45;3.70;;;;;;;29.38;39.52;101440.00;4926349;28;20047;-76
2022/08/25 10:33:30;;;;;;;7.25;3.20;;;;;;;29.37;36.82;101430.38;4924350;28;20387;-75
2022/08/25 10:36:22;;;;;;;6.10;3.13;;;;;;;29.66;38.01;101430.44;4924587;28;20040;-76
2022/08/25 10:38:59;;;;;;;6.47;3.72;;;;;;;29.52;37.50;101425.34;4927636;28;20040;-76
2022/08/25 10:41:48;;;;;;;6.00;3.70;;;;;;;29.62;37.76;101414.88;4929107;28;20419;-77
2022/08/25 10:47:43;;;;;;;5.93;2.90;;;;;;;30.04;34.38;101406.53;4943115;29;20046;-77
2022/08/25 10:50:35;;;;;;;4.07;2.60;;;;;;;30.20;34.98;101405.00;4918147;29;20582;-76
2022/08/25 10:53:12;;;;;;;5.07;2.55;;;;;;;30.23;33.67;101398.34;4938044;28;20503;-75
2022/08/25 10:55:52;;;;;;;6.00;2.85;;;;;;;30.48;33.59;101396.09;4934042;29;20122;-76
2022/08/25 10:58:40;;;;;;;4.13;2.35;;;;;;;30.63;32.14;101399.00;4926159;28;20047;-77
2022/08/25 11:01:22;;;;;;;5.53;2.40;;;;;;;30.67;32.63;101388.59;4928461;28;20045;-78
2022/08/25 11:03:54;;;;;;;4.18;2.80;;;;;;;30.72;30.53;101396.75;4924454;28;20102;-76
2022/08/25 11:06:27;;;;;;;5.38;2.60;;;;;;;30.61;32.76;101393.06;4996643;28;20513;-76
2022/08/25 11:08:58;;;;;;;4.90;2.70;;;;;;;30.69;31.46;101391.88;5001724;28;20536;-76
2022/08/25 11:11:36;;;;;;;4.88;2.35;;;;;;;30.79;32.20;101401.91;5003531;28;20068;-76
2022/08/25 11:14:08;;;;;;;7.03;2.90;;;;;;;30.90;31.71;101390.28;5007759;28;20442;-76
2022/08/25 11:17:12;;;;;;;6.63;2.90;;;;;;;30.80;32.65;101387.50;4992636;28;20537;-76
2022/08/25 11:19:44;;;;;;;6.45;2.90;;;;;;;31.00;32.09;101379.72;4983211;28;20042;-76
2022/08/25 11:22:12;;;;;;;4.20;2.75;;;;;;;31.07;30.71;101383.03;5001356;28;20046;-76
2022/08/25 11:25:01;;;;;;;5.03;2.65;;;;;;;31.01;32.87;101383.22;5007596;28;20071;-76
2022/08/25 11:27:54;;;;;;;5.38;2.55;;;;;;;31.04;32.67;101382.72;5002393;28;20026;-79
2022/08/25 11:30:20;;;;;;;4.30;2.80;;;;;;;31.16;31.24;101370.03;5002491;28;20416;-75
2022/08/25 11:32:49;;;;;;;4.93;2.80;;;;;;;31.16;31.34;101364.66;4999021;28;20045;-78
2022/08/25 11:35:35;;;;;;;7.20;2.60;;;;;;;31.19;30.57;101356.91;5004581;28;20022;-76
2022/08/25 11:38:09;;;;;;;6.00;2.65;;;;;;;31.15;30.95;101363.84;4994778;28;20018;-76
2022/08/25 11:40:34;;;;;;;4.80;2.60;;;;;;;31.20;31.77;101355.06;4991438;28;20034;-77
2022/08/25 11:43:06;;;;;;;4.78;2.50;;;;;;;31.19;30.48;101354.22;4990352;28;20446;-76
2022/08/25 11:45:52;;;;;;;4.13;2.42;;;;;;;31.37;30.24;101350.47;5002279;28;20378;-76
2022/08/25 11:48:18;;;;;;;4.70;2.80;;;;;;;31.54;30.39;101349.56;5003242;28;20030;-76
2022/08/25 11:51:32;;;;;;;5.75;2.10;;;;;;;31.61;29.78;101342.94;4996177;28;20037;-77
2022/08/25 11:54:24;;;;;;;5.80;2.15;;;;;;;31.64;29.88;101345.13;4993004;28;20046;-76
2022/08/25 11:57:09;;;;;;;4.32;2.40;;;;;;;31.52;29.59;101341.78;5005998;28;20061;-76